Report METAR

 


LIBF - Foggia/Gino Lisa, Italy
Distance from station: NE 23km
Dati ricevuti: 16/07/2020 17:50
DATI Obsoleti
Parz. nuvoloso
Parz. nuvoloso
 Vento da OSO
Vento: OSO 15 km/h
Temperatura: 25°C
P.to Rugiada: 17°C
Umidità: 61%
Barometro: 1012 hPa
Nuvole: Parz. nuvoloso
Visibility: 10 km
Cloud details: Parz. nuvoloso 1676 m
2020/07/16 15:50 LIBF 161550Z 24008KT 9999 SCT055 25/17 Q1012
LIRT - Trevico, Italy
Distance from station: SSO 28km
Dati ricevuti: 16/07/2020 12:55
DATI Obsoleti
Parz. nuvoloso
Parz. nuvoloso
 Vento da NNO
Vento: NNO 20 km/h
Temperatura: 19°C
P.to Rugiada: 8°C
Umidità: 49%
Barometro: 1018 hPa
Nuvole: Parz. nuvoloso
Visibility: 10 km
Cloud details: Parz. nuvoloso 244 m
2020/07/16 10:55 LIRT 161055Z 33011KT 9999 SCT008 19/08 Q1018
LIBA - Amendola (it-Afb, Italy
Distance from station: NE 42km
Dati ricevuti: 16/07/2020 18:55
Nubi sparse
Nubi sparse
 Vento da E
Vento: E 11 km/h
Temperatura: 25°C
P.to Rugiada: 16°C
Umidità: 57%
Barometro: 1012 hPa
Nuvole: Nubi sparse
Visibility: 10 km
Cloud details: Nubi sparse 1067 m
2020/07/16 16:55 LIBA 161655Z 08006KT 9999 FEW035 25/16 Q1012
 
LIRI - Pontecagnano (af, Italy
Distance from station: SSO 81km
Dati ricevuti: 16/07/2020 18:50
Parz. nuvoloso
Parz. nuvoloso
 Vento da SSO
Vento: SSO 22 km/h
Temperatura: 26°C
P.to Rugiada: 20°C
Umidità: 70%
Barometro: 1013 hPa
Nuvole: Parz. nuvoloso
Visibility: 10 km
Cloud details: Parz. nuvoloso 914 m
2020/07/16 16:50 LIRI 161650Z 20012KT 9999 SCT030 26/20 Q1013
LIRN - Naples/Capodichi, Italy
Distance from station: OSO 96km
Dati ricevuti: 16/07/2020 18:50
Nubi sparse
Nubi sparse
 Vento da O
Vento: O 17 km/h
Temperatura: 27°C
Indice di Calore: 28°C
P.to Rugiada: 18°C
Umidità: 58%
Barometro: 1013 hPa
Nuvole: Nubi sparse
Visibility: 10 km
Cloud details: Nubi sparse 1524 m
2020/07/16 16:50 LIRN 161650Z 27009KT 9999 FEW050 27/18 Q1013 NOSIG
LIRM - Grazzanise (it-A, Italy
Distance from station: OSO 109km
Dati ricevuti: 16/07/2020 18:55
Parz. nuvoloso
Parz. nuvoloso
 Vento da O
Vento: O 17 km/h
Temperatura: 26°C
P.to Rugiada: 22°C
Umidità: 79%
Barometro: 1012 hPa
Nuvole: Parz. nuvoloso
Visibility: 10 km
Cloud details: Parz. nuvoloso 914 m
2020/07/16 16:55 LIRM 161655Z 26009KT 9999 SCT030 26/22 Q1012
 
LIBD - Bari/Palese Macc, Italy
Distance from station: E 121km
Dati ricevuti: 16/07/2020 18:50
Sereno
Sereno
 Vento da ENE
Vento: ENE 7 km/h
Temperatura: 25°C
P.to Rugiada: 16°C
Umidità: 57%
Barometro: 1013 hPa
Summary: Sereno
Visibility: superiore a 10 km
2020/07/16 16:50 LIBD 161650Z 06004KT 350V110 CAVOK 25/16 Q1013
LIQC - Capri Island, Italy
Distance from station: SO 124km
Dati ricevuti: 16/07/2020 18:55
Parz. nuvoloso
Parz. nuvoloso
 Vento da O
Vento: O 11 km/h
Temperatura: 26°C
P.to Rugiada: 21°C
Umidità: 74%
Barometro: 1013 hPa
Nuvole: Parz. nuvoloso
Visibility: 10 km
Cloud details: Parz. nuvoloso 762 m
2020/07/16 16:55 LIQC 161655Z 27006KT 9999 SCT025 26/21 Q1013
LIBV - Gioia Del Colle, Italy
Distance from station: ESE 144km
Dati ricevuti: 16/07/2020 18:55
Nubi sparse
Nubi sparse
 Vento da S
Vento: S 11 km/h
Temperatura: 23°C
P.to Rugiada: 16°C
Umidità: 65%
Barometro: 1013 hPa
Nuvole: Nubi sparse
Visibility: 10 km
Cloud details: Nubi sparse 1524 m
2020/07/16 16:55 LIBV 161655Z 19006KT 9999 FEW050 23/16 Q1013
 
LIBP - Pescara, Italy
Distance from station: NO 159km
Dati ricevuti: 16/07/2020 18:50
Molto nuvoloso
Molto nuvoloso
 Vento da E
Vento: E 9 km/h
Temperatura: 26°C
P.to Rugiada: 15°C
Umidità: 51%
Barometro: 1012 hPa
Nuvole: Molto nuvoloso
Visibility: 10 km
Cloud details: Molto nuvoloso 3048 m
2020/07/16 16:50 LIBP 161650Z AUTO 08005KT 040V120 9999 BKN100/// 26/15 Q1012
LIBH - Marina Di Ginosa, Italy
Distance from station: SE 160km
Dati ricevuti: 16/07/2020 18:55
Nubi sparse
Nubi sparse
 Vento da Variabile
Vento: Variabile 11 km/h
Temperatura: 26°C
P.to Rugiada: 21°C
Umidità: 74%
Barometro: 1011 hPa
Nuvole: Nubi sparse
Visibility: 10 km
Cloud details: Nubi sparse 1372 m
2020/07/16 16:55 LIBH 161655Z VRB06KT 9999 FEW045CB 26/21 Q1011
LIRH - Frosinone (it-Af, Italy
Distance from station: ONO 174km
Dati ricevuti: 16/07/2020 16:55
DATI Obsoleti
Nubi sparse
Nubi sparse
 Vento da SSE
Vento: SSE 11 km/h
Temperatura: 24°C
P.to Rugiada: 19°C
Umidità: 74%
Barometro: 1012 hPa
Nuvole: Nubi sparse
Visibility: 10 km
Cloud details: Parz. nuvoloso 1067 m
Nubi sparse 1219 m
2020/07/16 14:55 LIRH 161455Z 15006KT 9999 SCT035 FEW040CB 24/19 Q1012
 
LIBG - Grottaglie(Civ/A, Italy
Distance from station: ESE 192km
Dati ricevuti: 16/07/2020 18:50
Nubi sparse
Nubi sparse
 Vento da N
Vento: N 9 km/h
Temperatura: 24°C
P.to Rugiada: 20°C
Umidità: 78%
Barometro: 1012 hPa
Nuvole: Nubi sparse
Visibility: 10 km
Cloud details: Nubi sparse 1219 m
2020/07/16 16:50 LIBG 161650Z 35005KT 9999 FEW040 24/20 Q1012
LIRL - Latina (it-Afb), Italy
Distance from station: O 205km
Dati ricevuti: 16/07/2020 18:55
Parz. nuvoloso
Parz. nuvoloso
 Vento da O
Vento: O 9 km/h
Temperatura: 28°C
Indice di Calore: 29°C
P.to Rugiada: 20°C
Umidità: 62%
Barometro: 1013 hPa
Nuvole: Parz. nuvoloso
Visibility: 10 km
Cloud details: Nubi sparse 762 m
Parz. nuvoloso 2134 m
2020/07/16 16:55 LIRL 161655Z 28005KT 9999 FEW025 SCT070 28/20 Q1013
LIBR - Brindisi/Casale, Italy
Distance from station: ESE 231km
Dati ricevuti: 16/07/2020 18:50
Sereno
Sereno
 Vento da NNE
Vento: NNE 11 km/h
Temperatura: 25°C
P.to Rugiada: 18°C
Umidità: 65%
Barometro: 1012 hPa
Nuvole: Sereno
Visibility: 10 km
2020/07/16 16:50 LIBR 161650Z AUTO 02006KT 9999 NCD 25/18 Q1012
 
LIRG - Guidonia (it-Afb, Italy
Distance from station: ONO 232km
Dati ricevuti: 16/07/2020 18:55
Parz. nuvoloso
Parz. nuvoloso
 Vento da ONO
Vento: ONO 11 km/h
Temperatura: 25°C
P.to Rugiada: 16°C
Umidità: 57%
Barometro: 1013 hPa
Nuvole: Parz. nuvoloso
Visibility: 10 km
Cloud details: Parz. nuvoloso 1219 m
2020/07/16 16:55 LIRG 161655Z 29006KT 250V360 9999 SCT040 25/16 Q1013
LIBQ - Scuro Mountain, Italy
Distance from station: SSE 235km
Dati ricevuti: 16/07/2020 18:55
Nubi sparse
Nubi sparse
 Vento da O
Vento: O 9 km/h
Temperatura: 15°C
P.to Rugiada: 13°C
Umidità: 88%
Barometro: 1018 hPa
Nuvole: Nubi sparse
Visibility: 10 km
Cloud details: Nubi sparse 152 m
2020/07/16 16:55 LIBQ 161655Z 26005KT 210V300 9999 FEW005 15/13 Q1018
LIRA - Ciampino(It-Afb/, Italy
Distance from station: ONO 236km
Dati ricevuti: 16/07/2020 18:50
Sereno
Sereno
 Vento da OSO
Vento: OSO 15 km/h
Temperatura: 26°C
P.to Rugiada: 16°C
Umidità: 54%
Barometro: 1013 hPa
Summary: Sereno
Visibility: superiore a 10 km
2020/07/16 16:50 LIRA 161650Z 25008KT 210V280 CAVOK 26/16 Q1013
 
LIQN - Rieti, Italy
Distance from station: ONO 243km
Dati ricevuti: 16/07/2020 18:50
Nearby showers, Parz. nuvoloso
Nearby showers, Parz. nuvoloso
 Vento da S
Vento: S 11 km/h
Temperatura: 23°C
P.to Rugiada: 16°C
Umidità: 65%
Barometro: 1013 hPa
Summary: Nearby Showers
Nuvole: Parz. nuvoloso
Visibility: 10 km
Cloud details: Parz. nuvoloso 1372 m
2020/07/16 16:50 LIQN 161650Z 18006KT 9999 VCSH SCT045CB 23/16 Q1013
LIRE - Pratica Di Mare(, Italy
Distance from station: O 246km
Dati ricevuti: 16/07/2020 18:55
Sereno
Sereno
 Vento da OSO
Vento: OSO 17 km/h
Temperatura: 26°C
P.to Rugiada: 20°C
Umidità: 70%
Barometro: 1013 hPa
Summary: Sereno
Visibility: superiore a 10 km
2020/07/16 16:55 LIRE 161655Z 25009KT CAVOK 26/20 Q1013